createdAt,value
2022-10-09T00:00:51.019Z,5.03
2022-10-09T00:03:19.437Z,5.90
2022-10-09T00:05:47.735Z,5.90
2022-10-09T00:08:16.005Z,5.97
2022-10-09T00:10:44.662Z,9.07
2022-10-09T00:13:13.300Z,5.60
2022-10-09T00:15:45.804Z,5.38
2022-10-09T00:18:16.919Z,4.30
2022-10-09T00:20:46.849Z,5.93
2022-10-09T00:23:17.412Z,6.43
2022-10-09T00:28:20.308Z,8.95
2022-10-09T00:30:49.951Z,11.73
2022-10-09T00:33:18.595Z,9.40
2022-10-09T00:35:47.075Z,5.05
2022-10-09T00:38:15.710Z,6.30
2022-10-09T00:40:44.031Z,5.65
2022-10-09T00:43:16.013Z,6.00
2022-10-09T00:45:47.779Z,4.05
2022-10-09T00:48:18.125Z,7.10
2022-10-09T00:50:49.315Z,4.05
2022-10-09T00:53:19.520Z,4.28
2022-10-09T00:55:47.907Z,21.00
2022-10-09T00:58:16.192Z,21.13
2022-10-09T01:00:44.418Z,4.78
2022-10-09T01:03:12.658Z,3.10
2022-10-09T01:05:46.373Z,5.25
2022-10-09T01:08:17.858Z,9.73
2022-10-09T01:10:50.371Z,4.20
2022-10-09T01:13:24.546Z,4.47
2022-10-09T01:15:55.521Z,3.83
2022-10-09T01:18:28.283Z,3.70
2022-10-09T01:21:01.029Z,3.38
2022-10-09T01:24:03.058Z,4.65
2022-10-09T01:26:56.587Z,4.57
2022-10-09T01:29:25.962Z,7.53
2022-10-09T01:31:54.244Z,23.55
2022-10-09T01:34:22.803Z,28.00
2022-10-09T01:36:51.803Z,20.17
2022-10-09T01:39:22.845Z,5.05
2022-10-09T01:41:52.471Z,5.13
2022-10-09T01:44:23.828Z,5.38
2022-10-09T01:46:52.365Z,5.30
2022-10-09T01:49:43.092Z,6.68
2022-10-09T01:54:54.503Z,4.40
2022-10-09T01:57:28.141Z,4.20
2022-10-09T02:00:00.342Z,5.05
2022-10-09T02:02:29.247Z,5.80
2022-10-09T02:04:58.941Z,5.68
2022-10-09T02:07:27.322Z,4.03
2022-10-09T02:09:56.479Z,4.75
2022-10-09T02:12:26.247Z,29.73
2022-10-09T02:14:55.625Z,5.30
2022-10-09T02:17:30.934Z,6.22
2022-10-09T02:20:07.873Z,4.90
2022-10-09T02:22:37.483Z,5.07
2022-10-09T02:25:08.380Z,27.50
2022-10-09T02:27:36.818Z,20.15
2022-10-09T02:30:07.930Z,39.55
2022-10-09T02:32:37.669Z,3.00
2022-10-09T02:35:06.762Z,4.27
2022-10-09T02:37:35.090Z,4.93
2022-10-09T02:40:08.278Z,3.78
2022-10-09T02:42:38.814Z,6.43
2022-10-09T02:45:08.756Z,3.30
2022-10-09T02:47:38.449Z,3.92
2022-10-09T02:50:08.145Z,4.80
2022-10-09T02:52:36.379Z,29.83
2022-10-09T02:55:04.978Z,68.75
2022-10-09T02:57:33.331Z,16.70
2022-10-09T03:00:01.570Z,42.95
2022-10-09T03:02:29.989Z,28.08
2022-10-09T03:04:59.653Z,12.90
2022-10-09T03:07:27.799Z,6.40
2022-10-09T03:09:57.241Z,15.32
2022-10-09T03:12:25.456Z,11.73
2022-10-09T03:14:53.670Z,9.90
2022-10-09T03:17:21.839Z,7.85
2022-10-09T03:19:50.388Z,7.22
2022-10-09T03:22:20.000Z,6.28
2022-10-09T03:24:48.198Z,5.10
2022-10-09T03:27:16.400Z,20.92
2022-10-09T03:29:44.550Z,16.25
2022-10-09T03:32:12.826Z,4.60
2022-10-09T03:37:28.130Z,4.07
2022-10-09T03:39:56.338Z,16.10
2022-10-09T03:42:24.872Z,5.53
2022-10-09T03:44:53.162Z,14.88
2022-10-09T03:47:21.375Z,18.70
2022-10-09T03:49:49.594Z,25.75
2022-10-09T03:52:17.796Z,19.67
2022-10-09T03:54:47.500Z,23.42
2022-10-09T03:57:15.762Z,23.87
2022-10-09T03:59:44.027Z,14.30
2022-10-09T04:02:12.301Z,19.30
2022-10-09T04:04:40.575Z,21.02
2022-10-09T04:07:08.913Z,17.00
2022-10-09T04:09:37.102Z,15.07
2022-10-09T04:12:06.923Z,28.92
2022-10-09T04:14:35.325Z,18.88
2022-10-09T04:17:03.553Z,18.75
2022-10-09T04:19:31.799Z,9.07
2022-10-09T04:22:00.085Z,7.50
2022-10-09T04:24:28.319Z,9.80
2022-10-09T04:26:56.890Z,16.25
2022-10-09T04:29:26.475Z,19.15
2022-10-09T04:31:54.718Z,8.95
2022-10-09T04:34:22.967Z,8.02
2022-10-09T04:36:51.180Z,10.68
2022-10-09T04:39:19.406Z,9.20
2022-10-09T04:41:47.622Z,17.75
2022-10-09T04:44:15.850Z,29.25
2022-10-09T04:46:45.525Z,25.15
2022-10-09T04:49:14.393Z,24.37
2022-10-09T04:51:42.631Z,15.23
2022-10-09T04:54:11.251Z,14.13
2022-10-09T04:56:39.732Z,15.88
2022-10-09T04:59:07.972Z,20.50
2022-10-09T05:01:38.472Z,15.23
2022-10-09T05:04:08.326Z,27.25
2022-10-09T05:06:36.558Z,15.27
2022-10-09T05:09:05.128Z,20.85
2022-10-09T05:11:33.374Z,12.40
2022-10-09T05:14:01.807Z,8.15
2022-10-09T05:16:37.674Z,6.87
2022-10-09T05:19:14.558Z,13.05
2022-10-09T05:21:42.867Z,16.95
2022-10-09T05:24:11.150Z,20.52
2022-10-09T05:26:39.359Z,35.20
2022-10-09T05:29:07.523Z,34.67
2022-10-09T05:31:35.914Z,52.58
2022-10-09T05:34:05.099Z,70.70
2022-10-09T05:36:34.670Z,39.03
2022-10-09T05:39:02.920Z,82.70
2022-10-09T05:41:31.207Z,103.43
2022-10-09T05:44:02.022Z,44.15
2022-10-09T05:46:30.792Z,14.40
2022-10-09T05:49:00.260Z,14.13
2022-10-09T05:51:29.738Z,12.82
2022-10-09T05:54:01.929Z,10.98
2022-10-09T05:56:31.668Z,11.48
2022-10-09T05:59:01.806Z,12.00
2022-10-09T06:01:31.780Z,11.32
2022-10-09T06:04:01.219Z,12.38
2022-10-09T06:06:31.339Z,11.07
2022-10-09T06:09:01.055Z,12.18
2022-10-09T06:11:31.725Z,12.17
2022-10-09T06:16:30.051Z,14.68
2022-10-09T06:18:58.918Z,14.82
2022-10-09T06:21:27.724Z,12.45
2022-10-09T06:23:57.218Z,10.77
2022-10-09T06:26:29.191Z,11.48
2022-10-09T06:28:58.031Z,14.52
2022-10-09T06:31:27.892Z,11.23
2022-10-09T06:33:56.559Z,11.65
2022-10-09T06:36:26.257Z,10.57
2022-10-09T06:38:54.817Z,11.60
2022-10-09T06:41:24.886Z,10.85
2022-10-09T06:43:55.650Z,12.32
2022-10-09T06:46:25.387Z,13.13
2022-10-09T06:48:53.588Z,9.17
2022-10-09T06:51:23.265Z,11.73
2022-10-09T06:53:53.140Z,16.10
2022-10-09T06:56:22.956Z,12.32
2022-10-09T06:58:51.437Z,9.93
2022-10-09T07:01:24.010Z,14.73
2022-10-09T07:03:55.145Z,12.90
2022-10-09T07:06:25.214Z,14.38
2022-10-09T07:08:55.706Z,12.73
2022-10-09T07:11:25.620Z,12.27
2022-10-09T07:13:55.811Z,10.55
2022-10-09T07:16:28.148Z,10.73
2022-10-09T07:18:56.833Z,13.15
2022-10-09T07:21:25.185Z,11.77
2022-10-09T07:23:54.198Z,10.50
2022-10-09T07:26:24.222Z,14.85
2022-10-09T07:28:52.897Z,13.02
2022-10-09T07:31:21.472Z,12.02
2022-10-09T07:33:51.813Z,10.05
2022-10-09T07:36:20.282Z,9.02
2022-10-09T07:38:52.573Z,8.82
2022-10-09T07:41:21.575Z,12.07
2022-10-09T07:43:49.866Z,11.20
2022-10-09T07:46:21.789Z,10.50
2022-10-09T07:48:52.288Z,11.85
2022-10-09T07:51:21.984Z,12.52
2022-10-09T07:53:50.482Z,17.73
2022-10-09T07:56:21.046Z,8.23
2022-10-09T08:01:20.322Z,11.98
2022-10-09T08:03:50.875Z,10.23
2022-10-09T08:06:19.915Z,13.15
2022-10-09T08:08:50.833Z,8.25
2022-10-09T08:11:19.765Z,12.20
2022-10-09T08:13:50.143Z,8.05
2022-10-09T08:16:19.745Z,8.65
2022-10-09T08:18:48.050Z,10.87
2022-10-09T08:21:19.407Z,14.20
2022-10-09T08:23:47.982Z,12.40
2022-10-09T08:26:18.410Z,13.50
2022-10-09T08:28:51.309Z,11.88
2022-10-09T08:31:19.891Z,12.45
2022-10-09T08:33:48.334Z,12.35
2022-10-09T08:36:17.902Z,9.95
2022-10-09T08:38:47.994Z,10.57
2022-10-09T08:43:51.303Z,9.40
2022-10-09T08:46:23.299Z,9.27
2022-10-09T08:48:51.770Z,9.07
2022-10-09T08:51:24.410Z,8.50
2022-10-09T08:53:57.232Z,10.45
2022-10-09T08:56:26.541Z,9.60
2022-10-09T08:58:54.845Z,8.68
2022-10-09T09:01:30.336Z,7.90
2022-10-09T09:04:24.953Z,8.10
2022-10-09T09:07:00.952Z,9.02
2022-10-09T09:09:38.286Z,11.35
2022-10-09T09:12:13.689Z,9.32
2022-10-09T09:14:51.647Z,11.00
2022-10-09T09:17:24.616Z,8.85
2022-10-09T09:20:01.239Z,9.07
2022-10-09T09:22:31.186Z,8.60
2022-10-09T09:25:00.510Z,8.30
2022-10-09T09:27:30.296Z,7.05
2022-10-09T09:30:02.727Z,9.25
2022-10-09T09:32:32.316Z,10.52
2022-10-09T09:35:06.622Z,8.20
2022-10-09T09:37:37.681Z,8.43
2022-10-09T09:42:57.076Z,9.23
2022-10-09T09:45:27.057Z,7.85
2022-10-09T09:47:57.623Z,8.95
2022-10-09T09:53:26.792Z,7.43
2022-10-09T09:55:55.461Z,9.23
2022-10-09T09:58:24.228Z,8.88
2022-10-09T10:00:56.193Z,8.85
2022-10-09T10:03:25.396Z,7.20
2022-10-09T10:05:53.989Z,8.80
2022-10-09T10:08:25.914Z,6.25
2022-10-09T10:10:55.420Z,12.35
2022-10-09T10:13:25.615Z,6.97
2022-10-09T10:15:55.574Z,9.70
2022-10-09T10:18:26.065Z,8.13
2022-10-09T10:20:56.606Z,7.50
2022-10-09T10:23:36.754Z,6.78
2022-10-09T10:26:09.450Z,8.95
2022-10-09T10:28:46.397Z,7.40
2022-10-09T10:31:20.721Z,8.13
2022-10-09T10:33:53.269Z,7.63
2022-10-09T10:36:21.527Z,8.57
2022-10-09T10:38:57.460Z,7.53
2022-10-09T10:41:28.654Z,9.15
2022-10-09T10:44:00.030Z,8.40
2022-10-09T10:46:32.049Z,7.28
2022-10-09T10:49:01.047Z,7.93
2022-10-09T10:51:46.310Z,8.73
2022-10-09T10:54:38.589Z,9.10
2022-10-09T10:57:14.749Z,6.97
2022-10-09T10:59:48.941Z,6.45
2022-10-09T11:02:47.340Z,9.40
2022-10-09T11:05:36.631Z,5.25
2022-10-09T11:08:19.659Z,6.53
2022-10-09T11:10:56.640Z,5.55
2022-10-09T11:13:28.021Z,5.03
2022-10-09T11:16:04.947Z,5.30
2022-10-09T11:18:47.016Z,5.85
2022-10-09T11:21:28.251Z,5.45
2022-10-09T11:24:16.975Z,6.30
2022-10-09T11:26:49.872Z,4.85
2022-10-09T11:29:21.832Z,5.18
2022-10-09T11:31:53.276Z,7.70
2022-10-09T11:34:28.107Z,3.55
2022-10-09T11:36:56.700Z,7.82
2022-10-09T11:39:27.241Z,5.07
2022-10-09T11:41:57.103Z,4.60
2022-10-09T11:44:36.804Z,5.18
2022-10-09T11:47:10.637Z,4.90
2022-10-09T11:49:50.358Z,4.35
2022-10-09T11:52:22.752Z,6.82
2022-10-09T11:54:51.017Z,6.28
2022-10-09T11:57:29.428Z,2.65
2022-10-09T12:00:06.824Z,3.83
2022-10-09T12:02:35.721Z,4.75
2022-10-09T12:05:17.505Z,5.32
2022-10-09T12:07:46.033Z,6.32
2022-10-09T12:10:24.755Z,6.38
2022-10-09T12:13:00.345Z,6.63
2022-10-09T12:15:47.031Z,5.50
2022-10-09T12:18:17.793Z,7.55
2022-10-09T12:20:47.077Z,4.70
2022-10-09T12:23:26.735Z,5.65
2022-10-09T12:25:56.208Z,3.92
2022-10-09T12:28:30.145Z,6.05
2022-10-09T12:31:01.060Z,5.72
2022-10-09T12:33:34.972Z,5.25
2022-10-09T12:36:06.997Z,5.90
2022-10-09T12:38:35.358Z,6.30
2022-10-09T12:41:07.209Z,5.78
2022-10-09T12:43:37.400Z,6.15
2022-10-09T12:46:05.781Z,6.75
2022-10-09T12:48:38.601Z,7.68
2022-10-09T12:51:16.194Z,5.60
2022-10-09T12:53:48.884Z,5.82
2022-10-09T12:56:22.300Z,7.43
2022-10-09T12:58:52.298Z,6.57
2022-10-09T13:01:20.921Z,6.43
2022-10-09T13:03:57.643Z,3.90
2022-10-09T13:06:27.611Z,3.38
2022-10-09T13:08:58.637Z,4.13
2022-10-09T13:11:32.762Z,6.30
2022-10-09T13:14:02.946Z,5.50
2022-10-09T13:16:40.859Z,7.28
2022-10-09T13:19:22.210Z,7.25
2022-10-09T13:22:01.723Z,6.55
2022-10-09T13:24:30.473Z,7.15
2022-10-09T13:26:58.646Z,6.80
2022-10-09T13:29:28.446Z,4.97
2022-10-09T13:31:56.672Z,5.75
2022-10-09T13:34:25.002Z,7.45
2022-10-09T13:36:53.274Z,5.60
2022-10-09T13:39:21.482Z,5.63
2022-10-09T13:41:50.042Z,8.55
2022-10-09T13:44:18.271Z,5.60
2022-10-09T13:46:48.191Z,13.50
2022-10-09T13:49:16.445Z,5.47
2022-10-09T13:51:44.672Z,5.25
2022-10-09T13:54:12.969Z,7.43
2022-10-09T13:56:41.228Z,6.43
2022-10-09T13:59:09.452Z,3.97
2022-10-09T14:01:37.730Z,5.30
2022-10-09T14:04:07.333Z,5.85
2022-10-09T14:06:36.923Z,6.57
2022-10-09T14:09:05.545Z,6.40
2022-10-09T14:11:34.258Z,6.57
2022-10-09T14:14:03.097Z,7.35
2022-10-09T14:16:32.808Z,4.25
2022-10-09T14:19:02.920Z,6.60
2022-10-09T14:21:32.776Z,6.15
2022-10-09T14:24:02.927Z,7.07
2022-10-09T14:26:31.421Z,6.03
2022-10-09T14:29:01.761Z,5.15
2022-10-09T14:31:30.887Z,7.07
2022-10-09T14:34:00.520Z,8.30
2022-10-09T14:36:29.646Z,4.83
2022-10-09T14:39:00.229Z,5.38
2022-10-09T14:43:59.292Z,6.38
2022-10-09T14:46:28.835Z,4.68
2022-10-09T14:48:57.858Z,6.00
2022-10-09T14:51:28.059Z,4.95
2022-10-09T14:53:59.032Z,5.60
2022-10-09T14:56:28.139Z,6.25
2022-10-09T14:58:57.860Z,7.35
2022-10-09T15:01:28.883Z,6.03
2022-10-09T15:03:57.171Z,5.68
2022-10-09T15:06:25.433Z,4.97
2022-10-09T15:08:57.146Z,4.03
2022-10-09T15:11:29.390Z,5.47
2022-10-09T15:13:57.888Z,5.80
2022-10-09T15:16:26.247Z,8.73
2022-10-09T15:18:55.703Z,5.55
2022-10-09T15:21:25.999Z,7.13
2022-10-09T15:23:55.023Z,4.93
2022-10-09T15:26:23.741Z,8.10
2022-10-09T15:28:53.362Z,6.15
2022-10-09T15:31:24.360Z,7.93
2022-10-09T15:33:53.237Z,6.32
2022-10-09T15:36:21.728Z,4.60
2022-10-09T15:38:50.544Z,5.78
2022-10-09T15:41:23.191Z,8.90
2022-10-09T15:43:53.956Z,5.95
2022-10-09T15:46:22.377Z,5.55
2022-10-09T15:48:50.955Z,7.22
2022-10-09T15:51:19.788Z,6.22
2022-10-09T15:53:49.172Z,4.70
2022-10-09T15:56:19.774Z,5.63
2022-10-09T16:01:18.090Z,11.75
2022-10-09T16:03:46.699Z,8.73
2022-10-09T16:06:17.810Z,10.77
2022-10-09T16:08:46.504Z,6.43
2022-10-09T16:11:19.122Z,7.00
2022-10-09T16:13:50.141Z,6.00
2022-10-09T16:16:21.204Z,4.60
2022-10-09T16:18:49.875Z,5.30
2022-10-09T16:21:19.954Z,10.32
2022-10-09T16:23:48.404Z,6.93
2022-10-09T16:26:19.050Z,7.50
2022-10-09T16:31:24.929Z,7.30
2022-10-09T16:33:53.368Z,7.72
2022-10-09T16:36:21.635Z,9.38
2022-10-09T16:38:50.054Z,7.47
2022-10-09T16:41:20.176Z,11.52
2022-10-09T16:43:50.436Z,6.78
2022-10-09T16:46:21.349Z,7.95
2022-10-09T16:48:52.204Z,6.22
2022-10-09T16:51:21.642Z,6.85
2022-10-09T16:53:50.851Z,8.80
2022-10-09T16:56:21.054Z,8.85
2022-10-09T16:58:49.347Z,8.48
2022-10-09T17:01:17.651Z,7.25
2022-10-09T17:03:46.241Z,5.20
2022-10-09T17:06:19.579Z,6.07
2022-10-09T17:08:48.349Z,8.85
2022-10-09T17:11:18.067Z,5.00
2022-10-09T17:13:47.097Z,10.40
2022-10-09T17:16:18.410Z,5.35
2022-10-09T17:18:48.149Z,5.25
2022-10-09T17:21:19.145Z,7.30
2022-10-09T17:23:47.856Z,7.55
2022-10-09T17:26:17.757Z,6.60
2022-10-09T17:28:47.410Z,6.88
2022-10-09T17:31:17.205Z,7.27
2022-10-09T17:33:48.444Z,7.00
2022-10-09T17:36:19.579Z,6.53
2022-10-09T17:38:48.382Z,8.88
2022-10-09T17:41:21.354Z,9.23
2022-10-09T17:43:49.658Z,9.57
2022-10-09T17:46:18.424Z,7.50
2022-10-09T17:48:52.648Z,13.18
2022-10-09T17:51:23.922Z,19.20
2022-10-09T17:53:52.771Z,15.00
2022-10-09T17:56:21.167Z,7.90
2022-10-09T17:58:50.125Z,6.95
2022-10-09T18:01:18.705Z,7.20
2022-10-09T18:03:47.015Z,6.68
2022-10-09T18:06:16.809Z,9.85
2022-10-09T18:08:47.322Z,5.47
2022-10-09T18:11:17.163Z,8.32
2022-10-09T18:13:45.883Z,6.00
2022-10-09T18:16:15.744Z,6.05
2022-10-09T18:18:44.377Z,8.43
2022-10-09T18:21:16.906Z,6.47
2022-10-09T18:23:47.444Z,10.95
2022-10-09T18:26:17.230Z,11.60
2022-10-09T18:28:48.295Z,12.52
2022-10-09T18:31:19.567Z,10.30
2022-10-09T18:33:48.231Z,6.95
2022-10-09T18:36:19.680Z,8.40
2022-10-09T18:38:51.077Z,5.38
2022-10-09T18:41:20.366Z,6.25
2022-10-09T18:43:49.193Z,5.38
2022-10-09T18:46:18.260Z,5.60
2022-10-09T18:48:46.888Z,8.93
2022-10-09T18:51:17.688Z,6.10
2022-10-09T18:53:48.690Z,7.93
2022-10-09T18:56:20.403Z,7.38
2022-10-09T18:58:50.517Z,5.93
2022-10-09T19:01:18.803Z,8.02
2022-10-09T19:03:49.938Z,6.10
2022-10-09T19:06:18.890Z,4.40
2022-10-09T19:08:47.545Z,5.18
2022-10-09T19:11:15.885Z,9.63
2022-10-09T19:13:45.839Z,5.05
2022-10-09T19:16:14.073Z,8.75
2022-10-09T19:18:42.363Z,9.80
2022-10-09T19:21:13.821Z,6.30
2022-10-09T19:23:42.148Z,7.05
2022-10-09T19:26:10.671Z,10.10
2022-10-09T19:28:39.351Z,5.40
2022-10-09T19:31:10.544Z,9.00
2022-10-09T19:33:39.771Z,7.57
2022-10-09T19:36:08.772Z,10.57
2022-10-09T19:38:37.024Z,8.60
2022-10-09T19:41:06.555Z,8.30
2022-10-09T19:43:35.221Z,12.77
2022-10-09T19:46:04.810Z,6.43
2022-10-09T19:48:34.672Z,9.43
2022-10-09T19:51:07.282Z,7.22
2022-10-09T19:53:36.456Z,6.43
2022-10-09T19:56:10.679Z,5.20
2022-10-09T19:58:40.853Z,5.88
2022-10-09T20:01:10.682Z,6.88
2022-10-09T20:03:40.328Z,7.05
2022-10-09T20:06:09.558Z,4.93
2022-10-09T20:08:38.115Z,5.55
2022-10-09T20:11:07.511Z,6.32
2022-10-09T20:13:37.213Z,8.32
2022-10-09T20:16:07.880Z,6.30
2022-10-09T20:21:05.977Z,9.95
2022-10-09T20:23:34.267Z,9.43
2022-10-09T20:26:03.231Z,5.93
2022-10-09T20:28:32.671Z,8.85
2022-10-09T20:31:06.264Z,7.10
2022-10-09T20:33:34.698Z,8.75
2022-10-09T20:36:03.878Z,8.32
2022-10-09T20:38:33.832Z,6.63
2022-10-09T20:41:06.657Z,7.22
2022-10-09T20:43:35.108Z,6.70
2022-10-09T20:46:07.050Z,5.82
2022-10-09T20:48:35.503Z,6.63
2022-10-09T20:51:04.268Z,9.13
2022-10-09T20:53:34.186Z,7.85
2022-10-09T20:56:03.229Z,7.15
2022-10-09T20:58:31.771Z,6.28
2022-10-09T21:01:00.162Z,5.88
2022-10-09T21:03:28.427Z,7.13
2022-10-09T21:05:56.640Z,6.07
2022-10-09T21:08:24.932Z,7.40
2022-10-09T21:10:54.561Z,5.30
2022-10-09T21:13:22.737Z,6.32
2022-10-09T21:15:51.262Z,6.03
2022-10-09T21:18:20.040Z,5.55
2022-10-09T21:20:48.760Z,7.43
2022-10-09T21:23:18.412Z,5.57
2022-10-09T21:25:50.816Z,5.93
2022-10-09T21:28:21.746Z,7.25
2022-10-09T21:30:50.670Z,5.25
2022-10-09T21:33:19.418Z,8.02
2022-10-09T21:35:49.278Z,8.23
2022-10-09T21:38:19.159Z,6.20
2022-10-09T21:40:49.217Z,5.53
2022-10-09T21:43:17.874Z,6.72
2022-10-09T21:45:50.333Z,8.98
2022-10-09T21:48:18.815Z,6.88
2022-10-09T21:50:47.046Z,7.38
2022-10-09T21:53:15.302Z,6.55
2022-10-09T21:55:43.563Z,5.55
2022-10-09T21:58:11.882Z,7.78
2022-10-09T22:00:40.262Z,6.20
2022-10-09T22:03:09.851Z,5.88
2022-10-09T22:05:40.227Z,6.65
2022-10-09T22:08:08.461Z,6.03
2022-10-09T22:10:36.718Z,8.05
2022-10-09T22:13:05.151Z,8.32
2022-10-09T22:15:33.438Z,6.75
2022-10-09T22:18:01.732Z,6.93
2022-10-09T22:20:31.359Z,6.47
2022-10-09T22:22:59.582Z,5.47
2022-10-09T22:25:27.859Z,7.00
2022-10-09T22:27:56.145Z,5.35
2022-10-09T22:30:24.368Z,5.80
2022-10-09T22:32:53.973Z,6.63
2022-10-09T22:35:22.613Z,7.45
2022-10-09T22:37:52.398Z,4.53
2022-10-09T22:40:20.948Z,5.03
2022-10-09T22:42:49.568Z,9.68
2022-10-09T22:45:17.948Z,7.45
2022-10-09T22:47:47.687Z,6.65
2022-10-09T22:50:16.023Z,4.70
2022-10-09T22:52:44.235Z,5.72
2022-10-09T22:55:13.836Z,5.32
2022-10-09T22:57:42.134Z,7.80
2022-10-09T23:00:11.825Z,8.18
2022-10-09T23:02:40.154Z,6.20
2022-10-09T23:05:08.914Z,6.63
2022-10-09T23:07:37.157Z,7.68
2022-10-09T23:10:06.210Z,7.55
2022-10-09T23:12:35.902Z,5.50
2022-10-09T23:15:04.495Z,7.53
2022-10-09T23:17:32.757Z,6.55
2022-10-09T23:20:01.009Z,6.30
2022-10-09T23:22:29.226Z,4.57
2022-10-09T23:24:57.463Z,4.95
2022-10-09T23:27:25.712Z,5.72
2022-10-09T23:29:55.308Z,3.90
2022-10-09T23:32:23.559Z,6.75
2022-10-09T23:34:51.776Z,6.00
2022-10-09T23:37:20.021Z,5.70
2022-10-09T23:39:48.374Z,5.97
2022-10-09T23:42:16.590Z,6.57
2022-10-09T23:44:44.830Z,5.50
2022-10-09T23:47:14.479Z,5.53
2022-10-09T23:49:42.890Z,5.27
2022-10-09T23:52:11.207Z,5.03
2022-10-09T23:54:39.443Z,4.28
2022-10-09T23:57:07.694Z,5.03
2022-10-09T23:59:36.109Z,5.35
